KSEM/SEM METAR and TAF weather

Enter ICAO airport designator
Station Type Date Time Source
KSEM METAR 2019/12/08 11:35 UTC NOAA

KSEM 081135Z AUTO 12006KT 10SM 12/07 A3019 RMK AO2


Station Type Date Time Source
KSEM Decoded METAR 2019/12/08 11:35 UTC NOAA

Craig Field / Selma, AL, United States (KSEM) 32-21N 086-59W
Dec 08, 2019 - 06:35 AM EST / 2019.12.08 1135 UTC
Wind: from the ESE (120 degrees) at 7 MPH (6 KT):0
Visibility: 10 mile(s):0
Temperature: 53 F (12 C)
Dew Point: 44 F (7 C)
Relative Humidity: 71%
Pressure (altimeter): 30.19 in. Hg (1022 hPa)
ob: KSEM 081135Z AUTO 12006KT 10SM 12/07 A3019 RMK AO2
cycle: 11

Station Type Date Time Source
KSEM TAF UTC NOAA

Error!

Example: see airport list